Fontenelle, Wyoming
Current Conditions -  °F | °C
As of 7:55 PM on Tuesday 21 Oct 2014 (Local Time) from KEMM Reporting Station
Scattered Clouds Scattered Clouds  
Wind Chill: 31°   Ceiling: Unl
Heat Index: 37°   Visibility: 10mi
Dew Point: 28°   Wind: 8mph
Humidity: 70%   Direction: 300°WNW
Pressure: 30.09"   Gusts: NA
Location:  41.8294°N, 110.31°W
Report Text: KEMM 220155Z AUTO 30007KT 10SM SCT085 SCT120 03/M02 A3009 RMK AO2
Loading
Personal Weather Stations






























Interactive Weather Map
Tropical Storm Tracking
New forecast layout! Learn more

10-Day Weather Forecast

Advertisements
Track Severe Weather on mobile